sensor_id;sensor_type;location;lat;lon;timestamp;P1;durP1;ratioP1;P2;durP2;ratioP2
16579;SDS011;8402;51.466;6.806;2024-02-04T00:01:48;13.90;;;7.60;;
16579;SDS011;8402;51.466;6.806;2024-02-04T00:04:21;11.90;;;6.37;;
16579;SDS011;8402;51.466;6.806;2024-02-04T00:06:51;10.43;;;5.60;;
16579;SDS011;8402;51.466;6.806;2024-02-04T00:09:21;11.10;;;5.10;;
16579;SDS011;8402;51.466;6.806;2024-02-04T00:11:55;8.97;;;4.67;;
16579;SDS011;8402;51.466;6.806;2024-02-04T00:14:25;9.43;;;4.73;;
16579;SDS011;8402;51.466;6.806;2024-02-04T00:16:55;7.37;;;3.93;;
16579;SDS011;8402;51.466;6.806;2024-02-04T00:19:28;6.43;;;3.67;;
16579;SDS011;8402;51.466;6.806;2024-02-04T00:21:58;5.93;;;2.87;;
16579;SDS011;8402;51.466;6.806;2024-02-04T00:24:28;5.53;;;3.07;;
16579;SDS011;8402;51.466;6.806;2024-02-04T00:26:58;5.13;;;3.00;;
16579;SDS011;8402;51.466;6.806;2024-02-04T00:29:28;4.57;;;2.50;;
16579;SDS011;8402;51.466;6.806;2024-02-04T00:31:58;2.77;;;2.10;;
16579;SDS011;8402;51.466;6.806;2024-02-04T00:34:30;5.37;;;2.73;;
16579;SDS011;8402;51.466;6.806;2024-02-04T00:37:00;4.10;;;2.27;;
16579;SDS011;8402;51.466;6.806;2024-02-04T00:39:30;4.57;;;2.47;;
16579;SDS011;8402;51.466;6.806;2024-02-04T00:42:00;4.23;;;2.10;;
16579;SDS011;8402;51.466;6.806;2024-02-04T00:44:30;3.13;;;2.10;;
16579;SDS011;8402;51.466;6.806;2024-02-04T00:47:00;5.10;;;2.30;;
16579;SDS011;8402;51.466;6.806;2024-02-04T00:49:32;4.10;;;2.67;;
16579;SDS011;8402;51.466;6.806;2024-02-04T00:52:03;4.27;;;2.97;;
16579;SDS011;8402;51.466;6.806;2024-02-04T00:54:33;7.00;;;3.23;;
16579;SDS011;8402;51.466;6.806;2024-02-04T00:57:04;5.93;;;3.47;;
16579;SDS011;8402;51.466;6.806;2024-02-04T00:59:34;6.37;;;3.63;;
16579;SDS011;8402;51.466;6.806;2024-02-04T01:02:03;6.83;;;3.87;;
16579;SDS011;8402;51.466;6.806;2024-02-04T01:04:36;5.97;;;3.30;;
16579;SDS011;8402;51.466;6.806;2024-02-04T01:07:06;6.97;;;4.10;;
16579;SDS011;8402;51.466;6.806;2024-02-04T01:09:36;5.57;;;3.30;;
16579;SDS011;8402;51.466;6.806;2024-02-04T01:12:07;7.50;;;3.90;;
16579;SDS011;8402;51.466;6.806;2024-02-04T01:14:37;7.13;;;3.53;;
16579;SDS011;8402;51.466;6.806;2024-02-04T01:17:07;6.67;;;3.80;;
16579;SDS011;8402;51.466;6.806;2024-02-04T01:19:40;6.17;;;3.60;;
16579;SDS011;8402;51.466;6.806;2024-02-04T01:22:10;4.60;;;3.00;;
16579;SDS011;8402;51.466;6.806;2024-02-04T01:24:40;8.03;;;3.90;;
16579;SDS011;8402;51.466;6.806;2024-02-04T01:27:10;5.87;;;3.60;;
16579;SDS011;8402;51.466;6.806;2024-02-04T01:29:40;7.17;;;4.07;;
16579;SDS011;8402;51.466;6.806;2024-02-04T01:32:10;5.90;;;3.93;;
16579;SDS011;8402;51.466;6.806;2024-02-04T01:34:43;6.13;;;3.80;;
16579;SDS011;8402;51.466;6.806;2024-02-04T01:37:13;7.93;;;3.93;;
16579;SDS011;8402;51.466;6.806;2024-02-04T01:39:43;7.17;;;3.70;;
16579;SDS011;8402;51.466;6.806;2024-02-04T01:42:13;6.70;;;4.00;;
16579;SDS011;8402;51.466;6.806;2024-02-04T01:44:43;8.13;;;4.13;;
16579;SDS011;8402;51.466;6.806;2024-02-04T01:47:13;8.83;;;4.87;;
16579;SDS011;8402;51.466;6.806;2024-02-04T01:49:46;8.43;;;4.90;;
16579;SDS011;8402;51.466;6.806;2024-02-04T01:52:16;9.27;;;4.90;;
16579;SDS011;8402;51.466;6.806;2024-02-04T01:54:46;7.40;;;4.50;;
16579;SDS011;8402;51.466;6.806;2024-02-04T01:57:17;9.80;;;5.40;;
16579;SDS011;8402;51.466;6.806;2024-02-04T01:59:48;9.53;;;5.33;;
16579;SDS011;8402;51.466;6.806;2024-02-04T02:02:20;5.70;;;3.97;;
16579;SDS011;8402;51.466;6.806;2024-02-04T02:04:52;10.17;;;4.50;;
16579;SDS011;8402;51.466;6.806;2024-02-04T02:07:23;9.20;;;4.80;;
16579;SDS011;8402;51.466;6.806;2024-02-04T02:09:54;11.20;;;6.33;;
16579;SDS011;8402;51.466;6.806;2024-02-04T02:12:24;9.80;;;5.57;;
16579;SDS011;8402;51.466;6.806;2024-02-04T02:14:58;8.17;;;5.13;;
16579;SDS011;8402;51.466;6.806;2024-02-04T02:17:31;10.57;;;5.43;;
16579;SDS011;8402;51.466;6.806;2024-02-04T02:20:19;8.97;;;4.93;;
16579;SDS011;8402;51.466;6.806;2024-02-04T02:22:56;9.27;;;5.40;;
16579;SDS011;8402;51.466;6.806;2024-02-04T02:25:30;7.80;;;4.70;;
16579;SDS011;8402;51.466;6.806;2024-02-04T02:28:01;8.40;;;4.97;;
16579;SDS011;8402;51.466;6.806;2024-02-04T02:30:31;8.83;;;5.17;;
16579;SDS011;8402;51.466;6.806;2024-02-04T02:33:01;9.30;;;5.27;;
16579;SDS011;8402;51.466;6.806;2024-02-04T02:35:33;9.20;;;5.37;;
16579;SDS011;8402;51.466;6.806;2024-02-04T02:38:04;7.87;;;5.33;;
16579;SDS011;8402;51.466;6.806;2024-02-04T02:40:44;10.90;;;5.97;;
16579;SDS011;8402;51.466;6.806;2024-02-04T02:43:16;9.67;;;5.37;;
16579;SDS011;8402;51.466;6.806;2024-02-04T02:45:48;11.40;;;6.53;;
16579;SDS011;8402;51.466;6.806;2024-02-04T02:48:18;12.23;;;7.13;;
16579;SDS011;8402;51.466;6.806;2024-02-04T02:50:48;13.93;;;7.40;;
16579;SDS011;8402;51.466;6.806;2024-02-04T02:53:18;12.60;;;6.93;;
16579;SDS011;8402;51.466;6.806;2024-02-04T02:55:51;10.83;;;5.77;;
16579;SDS011;8402;51.466;6.806;2024-02-04T02:58:21;13.47;;;7.17;;
16579;SDS011;8402;51.466;6.806;2024-02-04T03:00:50;14.20;;;7.60;;
16579;SDS011;8402;51.466;6.806;2024-02-04T03:03:20;12.93;;;7.40;;
16579;SDS011;8402;51.466;6.806;2024-02-04T03:05:50;18.00;;;7.30;;
16579;SDS011;8402;51.466;6.806;2024-02-04T03:08:20;16.40;;;7.83;;
16579;SDS011;8402;51.466;6.806;2024-02-04T03:10:53;11.87;;;6.53;;
16579;SDS011;8402;51.466;6.806;2024-02-04T03:13:23;13.30;;;7.20;;
16579;SDS011;8402;51.466;6.806;2024-02-04T03:15:53;16.47;;;7.73;;
16579;SDS011;8402;51.466;6.806;2024-02-04T03:18:22;14.50;;;7.10;;
16579;SDS011;8402;51.466;6.806;2024-02-04T03:20:52;12.70;;;7.33;;
16579;SDS011;8402;51.466;6.806;2024-02-04T03:23:22;14.53;;;7.63;;
16579;SDS011;8402;51.466;6.806;2024-02-04T03:25:55;13.67;;;7.10;;
16579;SDS011;8402;51.466;6.806;2024-02-04T03:28:25;14.10;;;8.30;;
16579;SDS011;8402;51.466;6.806;2024-02-04T03:30:55;15.10;;;8.10;;
16579;SDS011;8402;51.466;6.806;2024-02-04T03:33:25;16.03;;;9.00;;
16579;SDS011;8402;51.466;6.806;2024-02-04T03:35:55;15.73;;;8.87;;
16579;SDS011;8402;51.466;6.806;2024-02-04T03:38:25;14.63;;;7.90;;
16579;SDS011;8402;51.466;6.806;2024-02-04T03:40:57;15.40;;;8.87;;
16579;SDS011;8402;51.466;6.806;2024-02-04T03:43:27;14.87;;;8.60;;
16579;SDS011;8402;51.466;6.806;2024-02-04T03:45:57;14.10;;;7.93;;
16579;SDS011;8402;51.466;6.806;2024-02-04T03:48:27;16.23;;;8.90;;
16579;SDS011;8402;51.466;6.806;2024-02-04T03:50:57;15.90;;;8.43;;
16579;SDS011;8402;51.466;6.806;2024-02-04T03:53:27;17.90;;;8.47;;
16579;SDS011;8402;51.466;6.806;2024-02-04T03:55:59;19.97;;;9.00;;
16579;SDS011;8402;51.466;6.806;2024-02-04T03:58:29;15.93;;;8.40;;
16579;SDS011;8402;51.466;6.806;2024-02-04T04:00:59;14.33;;;7.87;;
16579;SDS011;8402;51.466;6.806;2024-02-04T04:03:29;12.60;;;7.37;;
16579;SDS011;8402;51.466;6.806;2024-02-04T04:05:59;15.27;;;8.17;;
16579;SDS011;8402;51.466;6.806;2024-02-04T04:08:29;12.70;;;7.07;;
16579;SDS011;8402;51.466;6.806;2024-02-04T04:11:02;14.27;;;7.80;;
16579;SDS011;8402;51.466;6.806;2024-02-04T04:13:32;15.07;;;7.17;;
16579;SDS011;8402;51.466;6.806;2024-02-04T04:16:02;12.90;;;7.07;;
16579;SDS011;8402;51.466;6.806;2024-02-04T04:18:32;13.50;;;6.97;;
16579;SDS011;8402;51.466;6.806;2024-02-04T04:21:03;14.27;;;7.60;;
16579;SDS011;8402;51.466;6.806;2024-02-04T04:23:33;18.43;;;8.00;;
16579;SDS011;8402;51.466;6.806;2024-02-04T04:26:05;16.80;;;8.27;;
16579;SDS011;8402;51.466;6.806;2024-02-04T04:28:35;16.13;;;8.37;;
16579;SDS011;8402;51.466;6.806;2024-02-04T04:31:05;15.63;;;7.33;;
16579;SDS011;8402;51.466;6.806;2024-02-04T04:33:35;20.27;;;8.43;;
16579;SDS011;8402;51.466;6.806;2024-02-04T04:36:06;15.70;;;8.33;;
16579;SDS011;8402;51.466;6.806;2024-02-04T04:38:36;15.67;;;8.30;;
16579;SDS011;8402;51.466;6.806;2024-02-04T04:41:08;18.17;;;9.43;;
16579;SDS011;8402;51.466;6.806;2024-02-04T04:43:38;23.33;;;9.93;;
16579;SDS011;8402;51.466;6.806;2024-02-04T04:46:08;19.37;;;9.27;;
16579;SDS011;8402;51.466;6.806;2024-02-04T04:48:38;19.17;;;9.17;;
16579;SDS011;8402;51.466;6.806;2024-02-04T04:51:08;18.13;;;9.47;;
16579;SDS011;8402;51.466;6.806;2024-02-04T04:53:38;19.27;;;9.87;;
16579;SDS011;8402;51.466;6.806;2024-02-04T04:56:10;18.33;;;9.90;;
16579;SDS011;8402;51.466;6.806;2024-02-04T04:58:40;24.77;;;9.83;;
16579;SDS011;8402;51.466;6.806;2024-02-04T05:01:10;23.87;;;10.73;;
16579;SDS011;8402;51.466;6.806;2024-02-04T05:03:40;17.40;;;8.83;;
16579;SDS011;8402;51.466;6.806;2024-02-04T05:06:10;19.03;;;9.63;;
16579;SDS011;8402;51.466;6.806;2024-02-04T05:08:40;16.40;;;9.57;;
16579;SDS011;8402;51.466;6.806;2024-02-04T05:11:13;18.37;;;9.20;;
16579;SDS011;8402;51.466;6.806;2024-02-04T05:13:43;21.83;;;7.83;;
16579;SDS011;8402;51.466;6.806;2024-02-04T05:16:12;19.33;;;9.63;;
16579;SDS011;8402;51.466;6.806;2024-02-04T05:18:42;16.33;;;7.93;;
16579;SDS011;8402;51.466;6.806;2024-02-04T05:21:12;16.53;;;7.63;;
16579;SDS011;8402;51.466;6.806;2024-02-04T05:23:42;21.17;;;9.23;;
16579;SDS011;8402;51.466;6.806;2024-02-04T05:26:15;27.33;;;10.03;;
16579;SDS011;8402;51.466;6.806;2024-02-04T05:28:46;17.63;;;9.03;;
16579;SDS011;8402;51.466;6.806;2024-02-04T05:31:16;17.23;;;8.90;;
16579;SDS011;8402;51.466;6.806;2024-02-04T05:33:46;14.90;;;8.50;;
16579;SDS011;8402;51.466;6.806;2024-02-04T05:36:16;20.73;;;9.70;;
16579;SDS011;8402;51.466;6.806;2024-02-04T05:38:46;20.73;;;9.07;;
16579;SDS011;8402;51.466;6.806;2024-02-04T05:41:19;15.80;;;8.50;;
16579;SDS011;8402;51.466;6.806;2024-02-04T05:43:49;16.63;;;8.70;;
16579;SDS011;8402;51.466;6.806;2024-02-04T05:46:19;17.07;;;9.20;;
16579;SDS011;8402;51.466;6.806;2024-02-04T05:48:49;16.90;;;8.83;;
16579;SDS011;8402;51.466;6.806;2024-02-04T05:51:19;23.03;;;10.13;;
16579;SDS011;8402;51.466;6.806;2024-02-04T05:53:49;20.87;;;9.83;;
16579;SDS011;8402;51.466;6.806;2024-02-04T05:56:21;19.53;;;10.33;;
16579;SDS011;8402;51.466;6.806;2024-02-04T05:58:51;20.87;;;10.17;;
16579;SDS011;8402;51.466;6.806;2024-02-04T06:01:21;20.87;;;11.10;;
16579;SDS011;8402;51.466;6.806;2024-02-04T06:03:51;21.60;;;10.40;;
16579;SDS011;8402;51.466;6.806;2024-02-04T06:06:21;21.07;;;11.00;;
16579;SDS011;8402;51.466;6.806;2024-02-04T06:08:51;20.10;;;10.80;;
16579;SDS011;8402;51.466;6.806;2024-02-04T06:11:24;25.43;;;11.50;;
16579;SDS011;8402;51.466;6.806;2024-02-04T06:13:54;20.87;;;11.63;;
16579;SDS011;8402;51.466;6.806;2024-02-04T06:16:23;28.93;;;11.90;;
16579;SDS011;8402;51.466;6.806;2024-02-04T06:18:53;29.83;;;13.00;;
16579;SDS011;8402;51.466;6.806;2024-02-04T06:21:25;28.13;;;14.10;;
16579;SDS011;8402;51.466;6.806;2024-02-04T06:23:55;29.33;;;13.63;;
16579;SDS011;8402;51.466;6.806;2024-02-04T06:26:27;25.70;;;13.70;;
16579;SDS011;8402;51.466;6.806;2024-02-04T06:28:57;32.40;;;14.10;;
16579;SDS011;8402;51.466;6.806;2024-02-04T06:31:27;30.27;;;15.70;;
16579;SDS011;8402;51.466;6.806;2024-02-04T06:33:57;28.43;;;14.13;;
16579;SDS011;8402;51.466;6.806;2024-02-04T06:36:28;32.07;;;14.53;;
16579;SDS011;8402;51.466;6.806;2024-02-04T06:38:58;20.60;;;9.63;;
16579;SDS011;8402;51.466;6.806;2024-02-04T06:41:30;30.87;;;13.40;;
16579;SDS011;8402;51.466;6.806;2024-02-04T06:44:01;32.40;;;14.07;;
16579;SDS011;8402;51.466;6.806;2024-02-04T06:46:32;29.83;;;13.50;;
16579;SDS011;8402;51.466;6.806;2024-02-04T06:49:01;24.17;;;12.43;;
16579;SDS011;8402;51.466;6.806;2024-02-04T06:51:31;25.07;;;12.40;;
16579;SDS011;8402;51.466;6.806;2024-02-04T06:54:01;29.67;;;12.40;;
16579;SDS011;8402;51.466;6.806;2024-02-04T06:56:34;27.33;;;11.83;;
16579;SDS011;8402;51.466;6.806;2024-02-04T06:59:04;33.67;;;11.37;;
16579;SDS011;8402;51.466;6.806;2024-02-04T07:01:33;28.03;;;12.27;;
16579;SDS011;8402;51.466;6.806;2024-02-04T07:04:04;29.07;;;12.23;;
16579;SDS011;8402;51.466;6.806;2024-02-04T07:06:33;27.33;;;11.90;;
16579;SDS011;8402;51.466;6.806;2024-02-04T07:09:03;28.23;;;11.33;;
16579;SDS011;8402;51.466;6.806;2024-02-04T07:11:36;28.43;;;11.27;;
16579;SDS011;8402;51.466;6.806;2024-02-04T07:14:06;26.47;;;11.37;;
16579;SDS011;8402;51.466;6.806;2024-02-04T07:16:35;25.30;;;11.67;;
16579;SDS011;8402;51.466;6.806;2024-02-04T07:19:05;22.93;;;10.50;;
16579;SDS011;8402;51.466;6.806;2024-02-04T07:21:36;19.80;;;10.17;;
16579;SDS011;8402;51.466;6.806;2024-02-04T07:24:05;18.83;;;9.23;;
16579;SDS011;8402;51.466;6.806;2024-02-04T07:26:38;22.93;;;10.77;;
16579;SDS011;8402;51.466;6.806;2024-02-04T07:29:08;14.67;;;6.97;;
16579;SDS011;8402;51.466;6.806;2024-02-04T07:31:38;17.37;;;9.10;;
16579;SDS011;8402;51.466;6.806;2024-02-04T07:34:08;20.70;;;9.87;;
16579;SDS011;8402;51.466;6.806;2024-02-04T07:36:38;16.30;;;8.83;;
16579;SDS011;8402;51.466;6.806;2024-02-04T07:39:10;17.50;;;8.43;;
16579;SDS011;8402;51.466;6.806;2024-02-04T07:41:42;16.33;;;9.10;;
16579;SDS011;8402;51.466;6.806;2024-02-04T07:44:12;20.50;;;8.50;;
16579;SDS011;8402;51.466;6.806;2024-02-04T07:46:42;21.23;;;9.10;;
16579;SDS011;8402;51.466;6.806;2024-02-04T07:49:12;15.50;;;7.30;;
16579;SDS011;8402;51.466;6.806;2024-02-04T07:51:42;14.73;;;8.10;;
16579;SDS011;8402;51.466;6.806;2024-02-04T07:54:12;17.53;;;8.73;;
16579;SDS011;8402;51.466;6.806;2024-02-04T07:56:45;15.97;;;7.10;;
16579;SDS011;8402;51.466;6.806;2024-02-04T07:59:15;18.23;;;8.13;;
16579;SDS011;8402;51.466;6.806;2024-02-04T08:01:44;15.93;;;7.47;;
16579;SDS011;8402;51.466;6.806;2024-02-04T08:04:14;11.93;;;4.13;;
16579;SDS011;8402;51.466;6.806;2024-02-04T08:06:44;10.03;;;4.77;;
16579;SDS011;8402;51.466;6.806;2024-02-04T08:09:14;12.53;;;5.63;;
16579;SDS011;8402;51.466;6.806;2024-02-04T08:11:47;10.87;;;4.07;;
16579;SDS011;8402;51.466;6.806;2024-02-04T08:14:17;9.53;;;4.07;;
16579;SDS011;8402;51.466;6.806;2024-02-04T08:16:47;8.87;;;4.27;;
16579;SDS011;8402;51.466;6.806;2024-02-04T08:19:16;10.27;;;5.73;;
16579;SDS011;8402;51.466;6.806;2024-02-04T08:21:46;13.27;;;7.13;;
16579;SDS011;8402;51.466;6.806;2024-02-04T08:24:16;14.37;;;7.70;;
16579;SDS011;8402;51.466;6.806;2024-02-04T08:26:49;17.33;;;8.83;;
16579;SDS011;8402;51.466;6.806;2024-02-04T08:29:19;12.93;;;7.17;;
16579;SDS011;8402;51.466;6.806;2024-02-04T08:31:49;13.83;;;6.07;;
16579;SDS011;8402;51.466;6.806;2024-02-04T08:34:19;13.10;;;5.47;;
16579;SDS011;8402;51.466;6.806;2024-02-04T08:36:50;9.17;;;4.53;;
16579;SDS011;8402;51.466;6.806;2024-02-04T08:39:21;10.37;;;5.20;;
16579;SDS011;8402;51.466;6.806;2024-02-04T08:41:55;11.30;;;4.83;;
16579;SDS011;8402;51.466;6.806;2024-02-04T08:44:25;9.00;;;4.10;;
16579;SDS011;8402;51.466;6.806;2024-02-04T08:47:05;9.10;;;4.10;;
16579;SDS011;8402;51.466;6.806;2024-02-04T08:49:37;9.40;;;3.90;;
16579;SDS011;8402;51.466;6.806;2024-02-04T08:52:05;8.57;;;4.13;;
16579;SDS011;8402;51.466;6.806;2024-02-04T08:54:35;8.80;;;4.70;;
16579;SDS011;8402;51.466;6.806;2024-02-04T08:57:07;10.63;;;5.80;;
16579;SDS011;8402;51.466;6.806;2024-02-04T08:59:37;9.70;;;5.87;;
16579;SDS011;8402;51.466;6.806;2024-02-04T09:02:07;11.27;;;6.30;;
16579;SDS011;8402;51.466;6.806;2024-02-04T09:04:37;13.20;;;6.33;;
16579;SDS011;8402;51.466;6.806;2024-02-04T09:07:09;12.00;;;5.60;;
16579;SDS011;8402;51.466;6.806;2024-02-04T09:09:39;14.27;;;7.57;;
16579;SDS011;8402;51.466;6.806;2024-02-04T09:12:12;15.13;;;8.17;;
16579;SDS011;8402;51.466;6.806;2024-02-04T09:14:42;14.37;;;7.27;;
16579;SDS011;8402;51.466;6.806;2024-02-04T09:17:12;17.17;;;8.40;;
16579;SDS011;8402;51.466;6.806;2024-02-04T09:19:42;17.97;;;8.43;;
16579;SDS011;8402;51.466;6.806;2024-02-04T09:22:12;19.93;;;8.30;;
16579;SDS011;8402;51.466;6.806;2024-02-04T09:24:42;13.97;;;6.27;;
16579;SDS011;8402;51.466;6.806;2024-02-04T09:27:14;11.33;;;6.03;;
16579;SDS011;8402;51.466;6.806;2024-02-04T09:29:44;12.73;;;6.70;;
16579;SDS011;8402;51.466;6.806;2024-02-04T09:32:14;13.80;;;6.90;;
16579;SDS011;8402;51.466;6.806;2024-02-04T09:34:45;13.90;;;6.70;;
16579;SDS011;8402;51.466;6.806;2024-02-04T09:37:15;13.40;;;7.50;;
16579;SDS011;8402;51.466;6.806;2024-02-04T09:39:45;13.63;;;7.00;;
16579;SDS011;8402;51.466;6.806;2024-02-04T09:42:19;14.50;;;7.17;;
16579;SDS011;8402;51.466;6.806;2024-02-04T09:44:50;15.97;;;6.03;;
16579;SDS011;8402;51.466;6.806;2024-02-04T09:47:20;14.00;;;6.60;;
16579;SDS011;8402;51.466;6.806;2024-02-04T09:49:50;8.90;;;5.20;;
16579;SDS011;8402;51.466;6.806;2024-02-04T09:52:29;11.83;;;6.43;;
16579;SDS011;8402;51.466;6.806;2024-02-04T09:55:00;10.23;;;5.93;;
16579;SDS011;8402;51.466;6.806;2024-02-04T09:57:35;13.67;;;6.70;;
16579;SDS011;8402;51.466;6.806;2024-02-04T10:00:06;15.97;;;6.80;;
16579;SDS011;8402;51.466;6.806;2024-02-04T10:02:37;12.83;;;6.23;;
16579;SDS011;8402;51.466;6.806;2024-02-04T10:05:07;13.73;;;6.63;;
16579;SDS011;8402;51.466;6.806;2024-02-04T10:07:38;11.03;;;6.27;;
16579;SDS011;8402;51.466;6.806;2024-02-04T10:10:08;13.20;;;5.93;;
16579;SDS011;8402;51.466;6.806;2024-02-04T10:12:42;11.83;;;5.90;;
16579;SDS011;8402;51.466;6.806;2024-02-04T10:15:12;11.30;;;5.63;;
16579;SDS011;8402;51.466;6.806;2024-02-04T10:17:43;11.63;;;6.13;;
16579;SDS011;8402;51.466;6.806;2024-02-04T10:20:15;12.17;;;6.50;;
16579;SDS011;8402;51.466;6.806;2024-02-04T10:22:46;11.90;;;6.00;;
16579;SDS011;8402;51.466;6.806;2024-02-04T10:25:16;12.33;;;6.10;;
16579;SDS011;8402;51.466;6.806;2024-02-04T10:27:52;12.43;;;6.43;;
16579;SDS011;8402;51.466;6.806;2024-02-04T10:30:24;10.90;;;5.93;;
16579;SDS011;8402;51.466;6.806;2024-02-04T10:32:54;13.63;;;6.00;;
16579;SDS011;8402;51.466;6.806;2024-02-04T10:35:24;12.20;;;4.73;;
16579;SDS011;8402;51.466;6.806;2024-02-04T10:37:54;11.23;;;6.07;;
16579;SDS011;8402;51.466;6.806;2024-02-04T10:40:24;8.73;;;4.57;;
16579;SDS011;8402;51.466;6.806;2024-02-04T10:42:58;10.50;;;3.90;;
16579;SDS011;8402;51.466;6.806;2024-02-04T10:45:33;12.23;;;6.10;;
16579;SDS011;8402;51.466;6.806;2024-02-04T10:48:09;9.70;;;5.00;;
16579;SDS011;8402;51.466;6.806;2024-02-04T10:50:40;15.30;;;6.10;;
16579;SDS011;8402;51.466;6.806;2024-02-04T10:53:14;10.50;;;5.50;;
16579;SDS011;8402;51.466;6.806;2024-02-04T10:55:45;13.33;;;5.83;;
16579;SDS011;8402;51.466;6.806;2024-02-04T10:58:19;9.27;;;4.73;;
16579;SDS011;8402;51.466;6.806;2024-02-04T11:00:49;10.60;;;5.37;;
16579;SDS011;8402;51.466;6.806;2024-02-04T11:03:20;10.67;;;4.70;;
16579;SDS011;8402;51.466;6.806;2024-02-04T11:05:54;7.77;;;4.40;;
16579;SDS011;8402;51.466;6.806;2024-02-04T11:08:24;7.33;;;4.57;;
16579;SDS011;8402;51.466;6.806;2024-02-04T11:10:55;8.20;;;4.60;;
16579;SDS011;8402;51.466;6.806;2024-02-04T11:13:28;6.73;;;3.30;;
16579;SDS011;8402;51.466;6.806;2024-02-04T11:15:59;7.87;;;4.90;;
16579;SDS011;8402;51.466;6.806;2024-02-04T11:21:34;9.90;;;4.70;;
16579;SDS011;8402;51.466;6.806;2024-02-04T11:24:19;6.90;;;4.03;;
16579;SDS011;8402;51.466;6.806;2024-02-04T11:27:01;8.87;;;4.80;;
16579;SDS011;8402;51.466;6.806;2024-02-04T11:29:35;7.63;;;4.57;;
16579;SDS011;8402;51.466;6.806;2024-02-04T11:32:05;8.83;;;4.50;;
16579;SDS011;8402;51.466;6.806;2024-02-04T11:34:36;10.47;;;3.90;;
16579;SDS011;8402;51.466;6.806;2024-02-04T11:37:13;8.17;;;4.40;;
16579;SDS011;8402;51.466;6.806;2024-02-04T11:39:49;7.13;;;3.80;;
16579;SDS011;8402;51.466;6.806;2024-02-04T11:42:22;6.13;;;4.17;;
16579;SDS011;8402;51.466;6.806;2024-02-04T11:47:42;11.17;;;4.97;;
16579;SDS011;8402;51.466;6.806;2024-02-04T11:50:12;10.13;;;4.70;;
16579;SDS011;8402;51.466;6.806;2024-02-04T11:52:42;6.03;;;3.60;;
16579;SDS011;8402;51.466;6.806;2024-02-04T11:55:13;7.83;;;3.63;;
16579;SDS011;8402;51.466;6.806;2024-02-04T11:57:43;7.87;;;3.90;;
16579;SDS011;8402;51.466;6.806;2024-02-04T12:00:17;7.17;;;3.87;;
16579;SDS011;8402;51.466;6.806;2024-02-04T12:02:48;8.77;;;4.43;;
16579;SDS011;8402;51.466;6.806;2024-02-04T12:05:31;9.73;;;4.97;;
16579;SDS011;8402;51.466;6.806;2024-02-04T12:08:03;9.83;;;4.50;;
16579;SDS011;8402;51.466;6.806;2024-02-04T12:10:35;7.20;;;4.17;;
16579;SDS011;8402;51.466;6.806;2024-02-04T12:13:06;7.90;;;4.50;;
16579;SDS011;8402;51.466;6.806;2024-02-04T12:15:38;10.50;;;4.80;;
16579;SDS011;8402;51.466;6.806;2024-02-04T12:18:10;9.57;;;4.90;;
16579;SDS011;8402;51.466;6.806;2024-02-04T12:20:41;10.33;;;4.47;;
16579;SDS011;8402;51.466;6.806;2024-02-04T12:23:12;10.07;;;4.90;;
16579;SDS011;8402;51.466;6.806;2024-02-04T12:25:42;8.30;;;4.60;;
16579;SDS011;8402;51.466;6.806;2024-02-04T12:28:13;16.83;;;5.37;;
16579;SDS011;8402;51.466;6.806;2024-02-04T12:30:54;7.57;;;3.33;;
16579;SDS011;8402;51.466;6.806;2024-02-04T12:33:25;8.43;;;4.67;;
16579;SDS011;8402;51.466;6.806;2024-02-04T12:35:55;10.33;;;5.03;;
16579;SDS011;8402;51.466;6.806;2024-02-04T12:38:26;8.17;;;4.03;;
16579;SDS011;8402;51.466;6.806;2024-02-04T12:41:01;8.80;;;3.97;;
16579;SDS011;8402;51.466;6.806;2024-02-04T12:43:31;8.07;;;4.80;;
16579;SDS011;8402;51.466;6.806;2024-02-04T12:46:05;7.83;;;4.30;;
16579;SDS011;8402;51.466;6.806;2024-02-04T12:48:35;7.37;;;3.87;;
16579;SDS011;8402;51.466;6.806;2024-02-04T12:51:06;8.13;;;4.43;;
16579;SDS011;8402;51.466;6.806;2024-02-04T12:53:37;7.33;;;4.23;;
16579;SDS011;8402;51.466;6.806;2024-02-04T12:56:07;9.33;;;3.93;;
16579;SDS011;8402;51.466;6.806;2024-02-04T12:58:41;4.33;;;2.53;;
16579;SDS011;8402;51.466;6.806;2024-02-04T13:01:15;10.50;;;4.23;;
16579;SDS011;8402;51.466;6.806;2024-02-04T13:03:45;10.03;;;4.90;;
16579;SDS011;8402;51.466;6.806;2024-02-04T13:06:17;7.77;;;4.73;;
16579;SDS011;8402;51.466;6.806;2024-02-04T13:08:47;5.97;;;3.33;;
16579;SDS011;8402;51.466;6.806;2024-02-04T13:11:20;6.47;;;4.20;;
16579;SDS011;8402;51.466;6.806;2024-02-04T13:13:50;6.47;;;3.53;;
16579;SDS011;8402;51.466;6.806;2024-02-04T13:16:24;7.87;;;3.37;;
16579;SDS011;8402;51.466;6.806;2024-02-04T13:18:54;6.37;;;3.27;;
16579;SDS011;8402;51.466;6.806;2024-02-04T13:21:24;7.70;;;4.50;;
16579;SDS011;8402;51.466;6.806;2024-02-04T13:23:54;8.07;;;3.60;;
16579;SDS011;8402;51.466;6.806;2024-02-04T13:26:24;5.37;;;3.27;;
16579;SDS011;8402;51.466;6.806;2024-02-04T13:28:54;6.03;;;2.90;;
16579;SDS011;8402;51.466;6.806;2024-02-04T13:31:27;4.17;;;2.50;;
16579;SDS011;8402;51.466;6.806;2024-02-04T13:33:57;6.23;;;3.60;;
16579;SDS011;8402;51.466;6.806;2024-02-04T13:36:31;7.30;;;3.23;;
16579;SDS011;8402;51.466;6.806;2024-02-04T13:39:01;7.70;;;3.30;;
16579;SDS011;8402;51.466;6.806;2024-02-04T13:41:32;6.90;;;3.83;;
16579;SDS011;8402;51.466;6.806;2024-02-04T13:44:02;6.93;;;4.30;;
16579;SDS011;8402;51.466;6.806;2024-02-04T13:46:37;6.27;;;4.07;;
16579;SDS011;8402;51.466;6.806;2024-02-04T13:49:09;11.97;;;4.60;;
16579;SDS011;8402;51.466;6.806;2024-02-04T13:51:40;7.77;;;3.97;;
16579;SDS011;8402;51.466;6.806;2024-02-04T13:54:11;7.83;;;4.43;;
16579;SDS011;8402;51.466;6.806;2024-02-04T13:56:44;10.70;;;5.00;;
16579;SDS011;8402;51.466;6.806;2024-02-04T13:59:14;10.97;;;4.73;;
16579;SDS011;8402;51.466;6.806;2024-02-04T14:01:46;8.87;;;4.60;;
16579;SDS011;8402;51.466;6.806;2024-02-04T14:04:17;13.90;;;5.97;;
16579;SDS011;8402;51.466;6.806;2024-02-04T14:06:47;7.90;;;4.73;;
16579;SDS011;8402;51.466;6.806;2024-02-04T14:09:17;12.27;;;5.23;;
16579;SDS011;8402;51.466;6.806;2024-02-04T14:11:47;8.93;;;5.27;;
16579;SDS011;8402;51.466;6.806;2024-02-04T14:14:16;10.50;;;5.03;;
16579;SDS011;8402;51.466;6.806;2024-02-04T14:16:49;7.80;;;5.00;;
16579;SDS011;8402;51.466;6.806;2024-02-04T14:19:20;8.30;;;5.20;;
16579;SDS011;8402;51.466;6.806;2024-02-04T14:21:50;8.20;;;5.37;;
16579;SDS011;8402;51.466;6.806;2024-02-04T14:24:20;8.13;;;5.57;;
16579;SDS011;8402;51.466;6.806;2024-02-04T14:26:55;7.77;;;3.67;;
16579;SDS011;8402;51.466;6.806;2024-02-04T14:29:26;8.83;;;5.40;;
16579;SDS011;8402;51.466;6.806;2024-02-04T14:31:58;9.93;;;6.13;;
16579;SDS011;8402;51.466;6.806;2024-02-04T14:34:28;11.60;;;5.83;;
16579;SDS011;8402;51.466;6.806;2024-02-04T14:36:58;14.50;;;5.70;;
16579;SDS011;8402;51.466;6.806;2024-02-04T14:39:28;10.70;;;5.67;;
16579;SDS011;8402;51.466;6.806;2024-02-04T14:41:59;12.30;;;6.43;;
16579;SDS011;8402;51.466;6.806;2024-02-04T14:44:29;10.97;;;6.37;;
16579;SDS011;8402;51.466;6.806;2024-02-04T14:47:04;9.83;;;5.73;;
16579;SDS011;8402;51.466;6.806;2024-02-04T14:49:35;10.57;;;5.67;;
16579;SDS011;8402;51.466;6.806;2024-02-04T14:52:05;12.30;;;6.20;;
16579;SDS011;8402;51.466;6.806;2024-02-04T14:54:35;11.10;;;5.77;;
16579;SDS011;8402;51.466;6.806;2024-02-04T14:57:05;10.37;;;5.83;;
16579;SDS011;8402;51.466;6.806;2024-02-04T14:59:35;10.13;;;5.63;;
16579;SDS011;8402;51.466;6.806;2024-02-04T15:02:08;11.57;;;6.03;;
16579;SDS011;8402;51.466;6.806;2024-02-04T15:04:38;13.50;;;6.43;;
16579;SDS011;8402;51.466;6.806;2024-02-04T15:07:08;13.37;;;6.03;;
16579;SDS011;8402;51.466;6.806;2024-02-04T15:09:39;18.87;;;6.50;;
16579;SDS011;8402;51.466;6.806;2024-02-04T15:12:10;11.50;;;6.03;;
16579;SDS011;8402;51.466;6.806;2024-02-04T15:14:41;12.37;;;6.07;;
16579;SDS011;8402;51.466;6.806;2024-02-04T15:17:15;13.43;;;6.27;;
16579;SDS011;8402;51.466;6.806;2024-02-04T15:19:45;12.53;;;6.07;;